Issaquah, WA (98027)

3:05 AM PST on February 07, 2016 (GMT -0800)
Front Street | | Change Station
CLOSE
Current Station
Personal Weather Station
Location: Issaquah, WA
Elevation: 92 ft
Nearby Weather Stations

Elev 92 ft 47.53 °N, 122.04 °W | Updated 3 seconds ago

Clear
Clear
33.5 °F
Feels Like 34 °F
N
0.0
Wind Variable Wind from South
Gusts 0.0 mph

Today
High -- | Low -- °F
--% Chance of Precip.
Yesterday
High -- | Low -- °F
Precip. -- in
Pressure 30.56 in
Visibility 9.0 miles
Clouds Mostly Cloudy 12000 ft
Windchill 34 °F
Dew Point 32 °F
Humidity 95%
Rainfall 0.00 in
Snow Depth Not available.
7:26 AM 5:18 PM
Waning Crescent, 2% visible
METAR KRNT 071053Z AUTO 00000KT 9SM BKN120 03/01 A3054 RMK AO2 SLP347 T00280011 $
Pressure 30.56 in
Visibility 9.0 miles
Clouds Mostly Cloudy 12000 ft
Windchill 34 °F
Dew Point 32 °F
Humidity 95%
Rainfall 0.00 in
Snow Depth Not available.
7:26 AM 5:18 PM
Waning Crescent, 2% visible
METAR KRNT 071053Z AUTO 00000KT 9SM BKN120 03/01 A3054 RMK AO2 SLP347 T00280011 $

10-Day Weather Forecast

Almanac

Astronomy

Feb. 07, 2016 Rise Set
Actual Time
Civil Twilight
Nautical Twilight
Astronomical Twilight
Moon
Length of Visible Light
Length of Day
Tomorrow will be .
, % of the Moon is Illuminated

Today's Extremes

State Highs State Lows

Community

WunderPhotos

Upload Photos

1,891,170 photos uploaded!

WunderBlog® & News

Nearby

Air Quality

  Air Quality AQ Index Pollutant
Not available.

Snow Depth

Station Depth Elevation

Earthquake Activity

City Distance Mag. Time & Date
Minimum magnitude displayed is 2.5.

Coastal Water Temperatures

Place Temperature

Stations

Nearby Weather Stations

Station Location Temp. Windchill Dew Point Humidity Wind Precip. Elev Updated Type
                   

Watches & Warnings

There are currently no watches in effect.